createdAt,value
2023-04-11T00:00:24.381Z,13.70
2023-04-11T00:01:57.665Z,15.50
2023-04-11T00:03:31.103Z,17.00
2023-04-11T00:05:05.736Z,15.60
2023-04-11T00:06:40.410Z,15.10
2023-04-11T00:08:13.735Z,15.50
2023-04-11T00:09:46.775Z,18.60
2023-04-11T00:11:19.926Z,17.20
2023-04-11T00:12:56.696Z,14.70
2023-04-11T00:14:32.291Z,18.00
2023-04-11T00:16:07.827Z,19.40
2023-04-11T00:17:41.498Z,16.10
2023-04-11T00:19:15.512Z,19.30
2023-04-11T00:20:48.596Z,19.10
2023-04-11T00:22:24.505Z,20.00
2023-04-11T00:23:57.593Z,20.80
2023-04-11T00:25:31.847Z,19.30
2023-04-11T00:27:05.021Z,19.90
2023-04-11T00:28:38.104Z,20.30
2023-04-11T00:30:12.016Z,18.00
2023-04-11T00:31:44.485Z,16.80
2023-04-11T00:33:17.897Z,16.70
2023-04-11T00:34:51.419Z,16.70
2023-04-11T00:36:24.563Z,17.80
2023-04-11T00:38:01.495Z,16.90
2023-04-11T00:39:35.269Z,18.10
2023-04-11T00:41:08.894Z,17.50
2023-04-11T00:42:41.984Z,18.50
2023-04-11T00:44:14.218Z,16.90
2023-04-11T00:45:47.894Z,15.60
2023-04-11T00:47:20.282Z,14.70
2023-04-11T00:48:53.988Z,12.50
2023-04-11T00:50:27.740Z,10.40
2023-04-11T00:52:00.639Z,10.00
2023-04-11T00:53:36.107Z,9.70
2023-04-11T00:55:10.801Z,8.80
2023-04-11T00:56:43.485Z,7.70
2023-04-11T00:58:17.689Z,8.40
2023-04-11T00:59:51.455Z,7.50
2023-04-11T01:01:25.336Z,9.20
2023-04-11T01:02:58.009Z,8.70
2023-04-11T01:04:31.189Z,8.10
2023-04-11T01:06:06.434Z,9.40
2023-04-11T01:07:42.784Z,7.90
2023-04-11T01:09:17.847Z,8.00
2023-04-11T01:10:51.365Z,8.10
2023-04-11T01:12:26.543Z,7.60
2023-04-11T01:13:59.038Z,9.00
2023-04-11T01:15:32.485Z,9.80
2023-04-11T01:17:07.731Z,10.20
2023-04-11T01:18:41.166Z,11.00
2023-04-11T01:20:14.964Z,11.20
2023-04-11T01:21:49.932Z,10.50
2023-04-11T01:23:25.025Z,10.20
2023-04-11T01:24:57.535Z,10.00
2023-04-11T01:26:30.956Z,9.10
2023-04-11T01:28:04.254Z,9.20
2023-04-11T01:29:37.064Z,10.50
2023-04-11T01:31:10.219Z,10.50
2023-04-11T01:32:43.391Z,11.40
2023-04-11T01:34:18.368Z,10.70
2023-04-11T01:35:51.493Z,11.40
2023-04-11T01:37:24.754Z,11.40
2023-04-11T01:38:59.838Z,11.60
2023-04-11T01:40:33.610Z,11.90
2023-04-11T01:42:06.902Z,11.70
2023-04-11T01:43:40.226Z,11.70
2023-04-11T01:45:14.264Z,12.10
2023-04-11T01:46:46.840Z,12.40
2023-04-11T01:48:21.599Z,11.80
2023-04-11T01:49:55.936Z,11.90
2023-04-11T01:51:28.199Z,11.50
2023-04-11T01:53:01.255Z,11.90
2023-04-11T01:54:37.225Z,12.10
2023-04-11T01:56:13.137Z,11.90
2023-04-11T01:57:46.296Z,11.40
2023-04-11T01:59:19.740Z,11.40
2023-04-11T02:00:52.898Z,12.40
2023-04-11T02:02:26.500Z,12.10
2023-04-11T02:03:59.811Z,11.80
2023-04-11T02:05:33.001Z,12.70
2023-04-11T02:07:06.134Z,11.90
2023-04-11T02:08:39.257Z,12.20
2023-04-11T02:10:12.697Z,12.50
2023-04-11T02:11:45.810Z,13.30
2023-04-11T02:13:19.050Z,12.50
2023-04-11T02:14:52.270Z,13.50
2023-04-11T02:16:25.887Z,14.50
2023-04-11T02:18:00.323Z,13.30
2023-04-11T02:19:34.494Z,12.80
2023-04-11T02:21:07.948Z,12.90
2023-04-11T02:22:40.673Z,11.70
2023-04-11T02:24:13.762Z,12.40
2023-04-11T02:25:48.281Z,13.30
2023-04-11T02:27:20.439Z,12.50
2023-04-11T02:28:53.752Z,12.30
2023-04-11T02:30:28.064Z,12.30
2023-04-11T02:32:01.782Z,11.40
2023-04-11T02:33:33.943Z,12.60
2023-04-11T02:35:08.203Z,12.40
2023-04-11T02:36:41.861Z,12.10
2023-04-11T02:38:14.495Z,12.20
2023-04-11T02:39:47.532Z,12.20
2023-04-11T02:41:22.170Z,12.10
2023-04-11T02:42:55.250Z,11.50
2023-04-11T02:44:29.388Z,12.60
2023-04-11T02:46:12.292Z,12.30
2023-04-11T02:47:48.429Z,11.90
2023-04-11T02:49:21.739Z,12.10
2023-04-11T02:50:54.858Z,12.40
2023-04-11T02:52:28.160Z,12.00
2023-04-11T02:54:01.250Z,12.20
2023-04-11T02:55:33.635Z,10.70
2023-04-11T02:57:08.058Z,11.00
2023-04-11T02:58:41.715Z,11.30
2023-04-11T03:00:15.851Z,11.90
2023-04-11T03:01:59.387Z,12.20
2023-04-11T03:03:32.936Z,11.20
2023-04-11T03:05:07.031Z,11.10
2023-04-11T03:06:42.892Z,11.70
2023-04-11T03:08:16.065Z,11.70
2023-04-11T03:09:55.959Z,11.20
2023-04-11T03:11:29.066Z,10.90
2023-04-11T03:13:03.721Z,11.30
2023-04-11T03:14:35.978Z,11.00
2023-04-11T03:16:09.933Z,10.10
2023-04-11T03:17:43.081Z,10.40
2023-04-11T03:19:19.634Z,10.60
2023-04-11T03:20:53.058Z,11.00
2023-04-11T03:22:26.424Z,11.20
2023-04-11T03:23:59.533Z,11.30
2023-04-11T03:25:32.988Z,10.60
2023-04-11T03:27:08.852Z,10.60
2023-04-11T03:28:45.763Z,10.90
2023-04-11T03:30:22.635Z,10.60
2023-04-11T03:31:55.841Z,11.00
2023-04-11T03:33:29.080Z,11.10
2023-04-11T03:35:02.812Z,11.10
2023-04-11T03:36:35.912Z,11.60
2023-04-11T03:38:10.354Z,11.90
2023-04-11T03:39:43.655Z,12.20
2023-04-11T03:41:16.715Z,11.50
2023-04-11T03:42:50.576Z,11.40
2023-04-11T03:44:29.424Z,11.50
2023-04-11T03:46:03.541Z,11.70
2023-04-11T03:47:43.751Z,11.90
2023-04-11T03:49:19.002Z,12.50
2023-04-11T03:50:57.789Z,12.10
2023-04-11T03:52:38.735Z,12.60
2023-04-11T03:54:16.779Z,12.20
2023-04-11T03:55:50.041Z,12.00
2023-04-11T03:57:27.034Z,12.70
2023-04-11T03:58:59.860Z,12.80
2023-04-11T04:00:39.662Z,12.20
2023-04-11T04:02:16.328Z,12.70
2023-04-11T04:03:57.185Z,12.30
2023-04-11T04:05:31.147Z,12.30
2023-04-11T04:07:04.318Z,12.30
2023-04-11T04:08:43.628Z,12.40
2023-04-11T04:10:15.915Z,12.30
2023-04-11T04:11:51.362Z,12.60
2023-04-11T04:13:28.721Z,12.40
2023-04-11T04:15:16.300Z,13.00
2023-04-11T04:16:53.900Z,13.60
2023-04-11T04:18:28.010Z,12.80
2023-04-11T04:20:01.140Z,12.90
2023-04-11T04:21:37.950Z,12.70
2023-04-11T04:23:13.919Z,13.30
2023-04-11T04:25:03.020Z,14.00
2023-04-11T04:26:39.268Z,13.80
2023-04-11T04:28:25.964Z,13.80
2023-04-11T04:30:04.200Z,15.30
2023-04-11T04:31:57.697Z,14.80
2023-04-11T04:33:42.939Z,14.40
2023-04-11T04:35:24.917Z,14.30
2023-04-11T04:36:59.589Z,13.90
2023-04-11T04:38:42.734Z,15.60
2023-04-11T04:40:20.449Z,15.00
2023-04-11T04:42:05.084Z,12.90
2023-04-11T04:43:43.877Z,16.10
2023-04-11T04:45:27.238Z,15.80
2023-04-11T04:47:01.740Z,14.80
2023-04-11T04:48:35.910Z,15.90
2023-04-11T04:50:09.884Z,19.80
2023-04-11T04:51:42.945Z,16.50
2023-04-11T04:53:16.072Z,19.80
2023-04-11T04:54:58.020Z,20.70
2023-04-11T04:56:32.736Z,25.30
2023-04-11T04:58:06.134Z,28.80
2023-04-11T04:59:39.326Z,31.30
2023-04-11T05:01:19.257Z,42.10
2023-04-11T05:02:56.246Z,57.30
2023-04-11T05:04:34.066Z,65.90
2023-04-11T05:06:07.677Z,87.10
2023-04-11T05:07:40.945Z,92.20
2023-04-11T05:09:16.156Z,90.40
2023-04-11T05:10:49.345Z,97.30
2023-04-11T05:12:27.000Z,99.90
2023-04-11T05:14:04.315Z,96.60
2023-04-11T05:15:37.401Z,99.90
2023-04-11T05:17:11.362Z,99.90
2023-04-11T05:18:46.560Z,99.90
2023-04-11T05:20:19.648Z,99.90
2023-04-11T05:21:55.587Z,99.90
2023-04-11T05:23:29.151Z,99.90
2023-04-11T05:25:08.782Z,99.90
2023-04-11T05:26:43.986Z,99.90
2023-04-11T05:28:17.803Z,99.90
2023-04-11T05:29:51.386Z,99.90
2023-04-11T05:31:26.722Z,99.90
2023-04-11T05:33:01.132Z,99.90
2023-04-11T05:34:50.953Z,99.90
2023-04-11T05:36:26.485Z,99.90
2023-04-11T05:38:00.665Z,99.90
2023-04-11T05:39:33.791Z,99.90
2023-04-11T05:41:07.813Z,99.90
2023-04-11T05:42:41.386Z,99.90
2023-04-11T05:44:14.439Z,99.90
2023-04-11T05:45:49.319Z,99.90
2023-04-11T05:47:23.535Z,99.90
2023-04-11T05:48:57.967Z,99.90
2023-04-11T05:50:32.603Z,99.90
2023-04-11T05:52:06.228Z,99.90
2023-04-11T05:53:40.241Z,99.90
2023-04-11T05:55:14.087Z,99.90
2023-04-11T05:56:47.153Z,99.90
2023-04-11T05:58:20.642Z,99.90
2023-04-11T05:59:54.238Z,99.90
2023-04-11T06:01:27.340Z,99.90
2023-04-11T06:03:01.821Z,99.90
2023-04-11T06:04:36.112Z,99.90
2023-04-11T06:06:11.532Z,99.90
2023-04-11T06:07:45.314Z,99.90
2023-04-11T06:09:18.785Z,99.90
2023-04-11T06:10:51.839Z,99.90
2023-04-11T06:12:26.274Z,99.90
2023-04-11T06:14:00.009Z,99.90
2023-04-11T06:15:33.161Z,99.90
2023-04-11T06:17:06.299Z,99.90
2023-04-11T06:18:40.214Z,99.90
2023-04-11T06:20:13.953Z,99.90
2023-04-11T06:21:48.377Z,99.90
2023-04-11T06:23:21.476Z,99.90
2023-04-11T06:24:54.547Z,99.90
2023-04-11T06:26:27.689Z,99.90
2023-04-11T06:28:02.283Z,99.90
2023-04-11T06:29:35.365Z,99.90
2023-04-11T06:31:11.735Z,99.90
2023-04-11T06:32:45.014Z,99.90
2023-04-11T06:34:18.213Z,99.90
2023-04-11T06:35:51.355Z,99.90
2023-04-11T06:37:27.182Z,99.90
2023-04-11T06:39:00.317Z,99.90
2023-04-11T06:40:34.208Z,99.90
2023-04-11T06:42:07.358Z,99.90
2023-04-11T06:43:40.625Z,99.90
2023-04-11T06:45:13.993Z,99.90
2023-04-11T06:46:47.079Z,99.90
2023-04-11T06:48:22.381Z,99.90
2023-04-11T06:49:55.629Z,99.90
2023-04-11T06:51:28.716Z,99.90
2023-04-11T06:53:04.660Z,99.90
2023-04-11T06:54:38.018Z,99.90
2023-04-11T06:56:12.031Z,99.90
2023-04-11T06:57:45.588Z,99.90
2023-04-11T06:59:20.620Z,99.90
2023-04-11T07:00:53.855Z,99.90
2023-04-11T07:02:27.240Z,99.90
2023-04-11T07:04:00.783Z,99.90
2023-04-11T07:05:34.201Z,99.90
2023-04-11T07:07:07.330Z,99.90
2023-04-11T07:08:42.100Z,99.90
2023-04-11T07:10:15.172Z,99.90
2023-04-11T07:11:48.328Z,99.90
2023-04-11T07:13:21.511Z,99.90
2023-04-11T07:14:54.583Z,99.90
2023-04-11T07:16:27.880Z,99.90
2023-04-11T07:18:01.033Z,99.90
2023-04-11T07:19:34.160Z,99.90
2023-04-11T07:21:07.802Z,99.90
2023-04-11T07:22:43.680Z,99.90
2023-04-11T07:24:21.021Z,99.90
2023-04-11T07:25:55.693Z,99.90
2023-04-11T07:27:28.839Z,99.90
2023-04-11T07:29:01.978Z,99.90
2023-04-11T07:30:35.200Z,99.90
2023-04-11T07:32:08.361Z,99.90
2023-04-11T07:33:44.132Z,99.90
2023-04-11T07:35:17.206Z,99.90
2023-04-11T07:36:50.881Z,99.90
2023-04-11T07:38:29.316Z,99.90
2023-04-11T07:40:06.407Z,99.90
2023-04-11T07:41:39.764Z,99.90
2023-04-11T07:43:12.838Z,99.90
2023-04-11T07:44:46.076Z,99.90
2023-04-11T07:46:19.185Z,99.90
2023-04-11T07:47:52.352Z,99.90
2023-04-11T07:49:25.527Z,99.90
2023-04-11T07:50:58.650Z,99.90
2023-04-11T07:52:31.832Z,99.90
2023-04-11T07:54:05.151Z,99.90
2023-04-11T07:55:39.672Z,99.90
2023-04-11T07:57:12.784Z,99.90
2023-04-11T07:58:45.861Z,99.90
2023-04-11T08:00:23.558Z,99.90
2023-04-11T08:02:00.873Z,99.90
2023-04-11T08:03:34.306Z,99.90
2023-04-11T08:05:09.970Z,99.90
2023-04-11T08:06:43.521Z,99.90
2023-04-11T08:08:16.631Z,99.90
2023-04-11T08:09:49.735Z,99.90
2023-04-11T08:11:24.184Z,99.90
2023-04-11T08:12:58.617Z,99.90
2023-04-11T08:14:31.738Z,99.90
2023-04-11T08:16:07.993Z,99.90
2023-04-11T08:17:41.352Z,99.90
2023-04-11T08:19:14.582Z,99.90
2023-04-11T08:20:47.651Z,99.90
2023-04-11T08:22:20.753Z,99.90
2023-04-11T08:23:54.038Z,99.90
2023-04-11T08:25:27.221Z,99.90
2023-04-11T08:27:01.746Z,99.90
2023-04-11T08:28:35.890Z,99.90
2023-04-11T08:30:10.152Z,99.90
2023-04-11T08:31:46.881Z,99.90
2023-04-11T08:33:20.521Z,99.90
2023-04-11T08:34:53.706Z,99.90
2023-04-11T08:36:27.329Z,99.90
2023-04-11T08:38:00.416Z,99.90
2023-04-11T08:39:33.601Z,99.90
2023-04-11T08:41:07.204Z,99.90
2023-04-11T08:42:41.768Z,99.90
2023-04-11T08:44:14.853Z,99.90
2023-04-11T08:45:48.199Z,99.90
2023-04-11T08:47:21.297Z,99.90
2023-04-11T08:48:54.396Z,99.90
2023-04-11T08:50:27.497Z,99.90
2023-04-11T08:52:01.841Z,99.90
2023-04-11T08:53:37.637Z,99.90
2023-04-11T08:55:11.407Z,99.90
2023-04-11T08:56:44.516Z,99.90
2023-04-11T08:58:19.375Z,99.90
2023-04-11T08:59:52.585Z,99.90
2023-04-11T09:01:27.363Z,99.90
2023-04-11T09:03:02.028Z,99.90
2023-04-11T09:04:41.505Z,99.90
2023-04-11T09:06:15.632Z,99.90
2023-04-11T09:07:50.123Z,99.90
2023-04-11T09:09:30.667Z,99.90
2023-04-11T09:11:04.078Z,99.90
2023-04-11T09:12:37.250Z,99.90
2023-04-11T09:14:12.307Z,99.90
2023-04-11T09:15:45.467Z,99.90
2023-04-11T09:17:18.571Z,99.90
2023-04-11T09:18:51.656Z,99.90
2023-04-11T09:20:29.461Z,99.90
2023-04-11T09:22:05.038Z,99.90
2023-04-11T09:23:39.077Z,99.90
2023-04-11T09:25:12.143Z,99.90
2023-04-11T09:26:45.436Z,99.90
2023-04-11T09:28:18.565Z,99.90
2023-04-11T09:29:53.024Z,99.90
2023-04-11T09:31:41.636Z,99.90
2023-04-11T09:33:23.348Z,99.90
2023-04-11T09:35:10.439Z,99.90
2023-04-11T09:36:44.167Z,99.90
2023-04-11T09:38:28.996Z,99.90
2023-04-11T09:40:02.212Z,99.90
2023-04-11T09:41:37.232Z,99.90
2023-04-11T09:43:10.335Z,99.90
2023-04-11T09:44:43.420Z,99.90
2023-04-11T09:46:20.592Z,99.90
2023-04-11T09:47:55.695Z,99.90
2023-04-11T09:49:29.994Z,99.90
2023-04-11T09:51:05.962Z,99.90
2023-04-11T09:52:42.841Z,99.90
2023-04-11T09:54:17.222Z,99.90
2023-04-11T09:55:50.316Z,99.90
2023-04-11T09:57:24.260Z,99.90
2023-04-11T09:59:00.277Z,96.10
2023-04-11T10:00:33.603Z,99.90
2023-04-11T10:02:08.151Z,82.30
2023-04-11T10:03:41.954Z,76.00
2023-04-11T10:05:15.937Z,66.50
2023-04-11T10:06:59.600Z,60.90
2023-04-11T10:08:34.695Z,62.50
2023-04-11T10:10:08.745Z,68.10
2023-04-11T10:11:43.896Z,60.30
2023-04-11T10:13:39.661Z,62.50
2023-04-11T10:15:13.709Z,70.40
2023-04-11T10:17:22.204Z,74.00
2023-04-11T10:19:24.915Z,83.40
2023-04-11T10:20:58.025Z,80.10
2023-04-11T10:23:00.279Z,65.90
2023-04-11T10:24:33.432Z,71.90
2023-04-11T10:26:10.685Z,66.10
2023-04-11T10:27:47.744Z,54.20
2023-04-11T10:29:51.394Z,59.90
2023-04-11T10:31:25.183Z,56.10
2023-04-11T10:33:12.871Z,59.10
2023-04-11T10:35:30.998Z,55.50
2023-04-11T10:37:05.097Z,53.20
2023-04-11T10:38:51.448Z,49.60
2023-04-11T10:40:25.180Z,52.20
2023-04-11T10:42:27.437Z,54.20
2023-04-11T10:44:15.993Z,58.20
2023-04-11T10:46:19.436Z,59.50
2023-04-11T10:48:11.643Z,69.40
2023-04-11T10:49:47.376Z,67.90
2023-04-11T10:51:27.892Z,71.30
2023-04-11T10:53:03.153Z,69.30
2023-04-11T10:54:36.369Z,66.20
2023-04-11T10:56:09.534Z,67.20
2023-04-11T10:58:07.247Z,67.80
2023-04-11T11:00:13.045Z,67.70
2023-04-11T11:01:55.558Z,67.00
2023-04-11T11:03:34.133Z,68.00
2023-04-11T11:05:20.469Z,68.40
2023-04-11T11:06:57.367Z,67.90
2023-04-11T11:08:31.816Z,65.00
2023-04-11T11:10:05.470Z,62.00
2023-04-11T11:11:38.566Z,53.90
2023-04-11T11:13:12.136Z,42.60
2023-04-11T11:14:46.475Z,54.40
2023-04-11T11:16:21.991Z,98.50
2023-04-11T11:17:55.240Z,99.90
2023-04-11T11:19:28.398Z,99.90
2023-04-11T11:21:03.251Z,99.90
2023-04-11T11:22:36.389Z,99.90
2023-04-11T11:24:09.472Z,99.90
2023-04-11T11:25:52.804Z,99.90
2023-04-11T11:27:26.260Z,99.90
2023-04-11T11:28:59.665Z,99.90
2023-04-11T11:30:32.895Z,99.90
2023-04-11T11:32:07.278Z,99.90
2023-04-11T11:33:42.024Z,99.90
2023-04-11T11:35:15.472Z,99.90
2023-04-11T11:36:49.967Z,99.90
2023-04-11T11:38:25.998Z,99.90
2023-04-11T11:39:59.139Z,99.90
2023-04-11T11:41:32.906Z,99.90
2023-04-11T11:43:06.125Z,99.90
2023-04-11T11:44:39.282Z,99.90
2023-04-11T11:46:15.179Z,99.90
2023-04-11T11:47:49.747Z,99.90
2023-04-11T11:49:22.836Z,99.90
2023-04-11T11:50:59.096Z,99.90
2023-04-11T11:52:35.068Z,99.90
2023-04-11T11:54:09.995Z,99.90
2023-04-11T11:55:44.206Z,99.90
2023-04-11T11:58:57.241Z,99.90
2023-04-11T12:00:32.728Z,99.90
2023-04-11T12:02:06.153Z,99.90
2023-04-11T12:03:39.524Z,99.90
2023-04-11T12:05:13.339Z,99.90
2023-04-11T12:06:46.881Z,99.90
2023-04-11T12:08:23.083Z,99.90
2023-04-11T12:09:58.888Z,99.90
2023-04-11T12:11:39.428Z,99.90
2023-04-11T12:13:14.343Z,99.90
2023-04-11T12:14:54.542Z,99.90
2023-04-11T12:16:27.818Z,99.90
2023-04-11T12:18:00.976Z,99.90
2023-04-11T12:19:34.075Z,99.90
2023-04-11T12:21:07.491Z,99.90
2023-04-11T12:22:40.916Z,99.90
2023-04-11T12:24:15.900Z,99.90
2023-04-11T12:25:49.041Z,99.90
2023-04-11T12:27:22.358Z,99.90
2023-04-11T12:28:55.632Z,99.90
2023-04-11T12:30:30.110Z,99.90
2023-04-11T12:32:03.969Z,99.90
2023-04-11T12:33:37.040Z,99.90
2023-04-11T12:35:11.560Z,99.90
2023-04-11T12:36:44.675Z,82.40
2023-04-11T12:38:18.307Z,74.00
2023-04-11T12:39:53.059Z,65.30
2023-04-11T12:43:02.233Z,82.30
2023-04-11T12:44:35.972Z,71.90
2023-04-11T12:46:09.056Z,90.30
2023-04-11T12:47:42.443Z,91.30
2023-04-11T12:49:15.548Z,62.50
2023-04-11T12:50:48.668Z,57.10
2023-04-11T12:52:22.441Z,56.10
2023-04-11T12:53:55.556Z,61.60
2023-04-11T12:55:30.266Z,62.40
2023-04-11T12:57:03.485Z,68.60
2023-04-11T12:58:36.541Z,52.00
2023-04-11T13:00:12.855Z,55.40
2023-04-11T13:01:46.826Z,52.00
2023-04-11T13:03:20.139Z,44.50
2023-04-11T13:04:54.500Z,54.00
2023-04-11T13:06:28.100Z,58.30
2023-04-11T13:08:01.512Z,45.40
2023-04-11T13:09:35.701Z,41.70
2023-04-11T13:11:10.662Z,41.30
2023-04-11T13:12:46.026Z,40.20
2023-04-11T13:14:19.194Z,44.40
2023-04-11T13:15:52.279Z,55.10
2023-04-11T13:17:25.431Z,36.60
2023-04-11T13:18:58.808Z,37.30
2023-04-11T13:20:32.589Z,36.60
2023-04-11T13:22:06.090Z,44.60
2023-04-11T13:23:39.167Z,43.60
2023-04-11T13:25:13.126Z,46.90
2023-04-11T13:26:47.611Z,43.60
2023-04-11T13:28:21.806Z,38.20
2023-04-11T13:29:54.915Z,34.40
2023-04-11T13:31:28.746Z,33.90
2023-04-11T13:33:02.050Z,35.90
2023-04-11T13:34:35.723Z,34.20
2023-04-11T13:36:10.058Z,33.40
2023-04-11T13:37:43.128Z,37.40
2023-04-11T13:39:16.214Z,37.40
2023-04-11T13:40:49.362Z,38.80
2023-04-11T13:42:23.815Z,38.70
2023-04-11T13:43:56.853Z,39.10
2023-04-11T13:45:30.105Z,40.50
2023-04-11T13:47:03.745Z,41.80
2023-04-11T13:48:36.888Z,42.70
2023-04-11T13:50:10.345Z,41.00
2023-04-11T13:51:43.613Z,43.30
2023-04-11T13:53:16.665Z,44.60
2023-04-11T13:54:50.032Z,44.20
2023-04-11T13:56:23.334Z,45.30
2023-04-11T13:57:57.895Z,44.90
2023-04-11T13:59:30.975Z,47.20
2023-04-11T14:01:04.239Z,47.30
2023-04-11T14:02:37.486Z,47.50
2023-04-11T14:04:10.738Z,47.70
2023-04-11T14:05:44.025Z,46.70
2023-04-11T14:07:17.199Z,47.10
2023-04-11T14:08:51.701Z,46.40
2023-04-11T14:10:24.803Z,46.50
2023-04-11T14:11:58.158Z,46.60
2023-04-11T14:13:32.617Z,45.20
2023-04-11T14:15:07.871Z,44.80
2023-04-11T14:16:41.132Z,49.40
2023-04-11T14:18:14.252Z,48.30
2023-04-11T14:19:47.338Z,47.60
2023-04-11T14:21:21.089Z,51.40
2023-04-11T14:22:54.312Z,54.70
2023-04-11T14:24:27.513Z,53.90
2023-04-11T14:26:00.588Z,53.40
2023-04-11T14:27:33.671Z,54.30
2023-04-11T14:29:08.125Z,52.70
2023-04-11T14:30:42.024Z,51.20
2023-04-11T14:32:15.203Z,51.00
2023-04-11T14:33:48.876Z,51.20
2023-04-11T14:35:22.410Z,52.40
2023-04-11T14:36:55.677Z,52.30
2023-04-11T14:38:29.069Z,53.30
2023-04-11T14:40:02.700Z,55.20
2023-04-11T14:41:36.679Z,55.60
2023-04-11T14:43:10.009Z,56.00
2023-04-11T14:44:44.476Z,56.50
2023-04-11T14:46:17.632Z,56.00
2023-04-11T14:47:51.559Z,54.90
2023-04-11T14:49:24.734Z,54.00
2023-04-11T14:50:57.826Z,53.40
2023-04-11T14:52:31.248Z,49.30
2023-04-11T14:54:04.564Z,48.60
2023-04-11T14:55:39.859Z,51.00
2023-04-11T14:57:12.960Z,51.00
2023-04-11T14:58:46.539Z,49.60
2023-04-11T15:00:22.799Z,49.70
2023-04-11T15:01:56.666Z,50.40
2023-04-11T15:03:29.977Z,50.10
2023-04-11T15:05:05.185Z,50.30
2023-04-11T15:06:38.643Z,49.30
2023-04-11T15:08:11.822Z,49.70
2023-04-11T15:09:44.989Z,48.20
2023-04-11T15:11:18.465Z,47.50
2023-04-11T15:12:51.724Z,44.70
2023-04-11T15:14:29.441Z,44.30
2023-04-11T15:16:04.426Z,43.80
2023-04-11T15:17:41.561Z,44.60
2023-04-11T15:19:14.656Z,37.60
2023-04-11T15:20:47.851Z,38.10
2023-04-11T15:22:20.943Z,38.10
2023-04-11T15:23:54.135Z,38.00
2023-04-11T15:25:27.207Z,39.30
2023-04-11T15:27:00.999Z,40.50
2023-04-11T15:28:35.875Z,40.70
2023-04-11T15:30:10.340Z,28.70
2023-04-11T15:31:46.213Z,18.40
2023-04-11T15:33:20.813Z,12.60
2023-04-11T15:34:54.987Z,11.30
2023-04-11T15:36:28.616Z,16.00
2023-04-11T15:38:01.781Z,13.40
2023-04-11T15:39:34.939Z,12.00
2023-04-11T15:41:08.605Z,14.90
2023-04-11T15:42:42.944Z,18.10
2023-04-11T15:44:16.082Z,21.60
2023-04-11T15:45:49.391Z,30.00
2023-04-11T15:47:23.943Z,31.20
2023-04-11T15:48:57.079Z,33.00
2023-04-11T15:50:30.185Z,39.50
2023-04-11T15:52:03.276Z,41.60
2023-04-11T15:53:36.751Z,41.50
2023-04-11T15:55:10.178Z,42.60
2023-04-11T15:56:43.263Z,43.30
2023-04-11T15:58:16.529Z,44.30
2023-04-11T15:59:49.701Z,43.40
2023-04-11T16:01:25.045Z,43.50
2023-04-11T16:03:02.854Z,44.10
2023-04-11T16:04:38.550Z,44.50
2023-04-11T16:06:11.925Z,45.60
2023-04-11T16:07:44.984Z,47.70
2023-04-11T16:09:18.630Z,45.50
2023-04-11T16:10:51.719Z,46.70
2023-04-11T16:12:24.840Z,47.00
2023-04-11T16:13:58.190Z,45.60
2023-04-11T16:15:31.442Z,46.40
2023-04-11T16:17:04.569Z,47.40
2023-04-11T16:18:39.033Z,45.80
2023-04-11T16:20:18.362Z,44.70
2023-04-11T16:21:51.726Z,42.10
2023-04-11T16:23:24.815Z,40.30
2023-04-11T16:24:57.913Z,40.50
2023-04-11T16:26:31.050Z,39.40
2023-04-11T16:28:04.328Z,34.90
2023-04-11T16:29:37.463Z,33.70
2023-04-11T16:31:10.836Z,31.90
2023-04-11T16:32:44.161Z,31.30
2023-04-11T16:34:18.628Z,31.40
2023-04-11T16:35:51.736Z,30.40
2023-04-11T16:37:25.134Z,31.50
2023-04-11T16:38:58.224Z,30.50
2023-04-11T16:40:31.850Z,32.60
2023-04-11T16:42:05.156Z,34.60
2023-04-11T16:43:38.232Z,35.60
2023-04-11T16:45:12.206Z,39.30
2023-04-11T16:46:45.941Z,42.60
2023-04-11T16:48:19.005Z,46.40
2023-04-11T16:49:53.842Z,48.70
2023-04-11T16:51:27.365Z,49.60
2023-04-11T16:53:00.539Z,52.30
2023-04-11T16:54:33.775Z,55.50
2023-04-11T16:56:07.505Z,56.20
2023-04-11T16:57:40.855Z,55.50
2023-04-11T16:59:13.935Z,57.90
2023-04-11T17:00:48.237Z,57.70
2023-04-11T17:02:21.514Z,56.80
2023-04-11T17:03:54.958Z,55.40
2023-04-11T17:05:30.717Z,55.20
2023-04-11T17:07:03.840Z,54.80
2023-04-11T17:08:36.951Z,54.70
2023-04-11T17:10:10.879Z,51.10
2023-04-11T17:11:43.975Z,48.30
2023-04-11T17:13:18.560Z,42.00
2023-04-11T17:14:52.624Z,37.90
2023-04-11T17:16:25.736Z,37.20
2023-04-11T17:17:59.602Z,34.70
2023-04-11T17:19:32.828Z,31.70
2023-04-11T17:21:07.872Z,29.00
2023-04-11T17:22:43.201Z,27.30
2023-04-11T17:24:16.325Z,25.40
2023-04-11T17:25:52.228Z,26.40
2023-04-11T17:27:25.456Z,26.90
2023-04-11T17:28:58.904Z,26.60
2023-04-11T17:30:32.904Z,26.70
2023-04-11T17:32:06.126Z,26.60
2023-04-11T17:33:39.332Z,23.40
2023-04-11T17:35:12.566Z,20.20
2023-04-11T17:36:47.647Z,19.10
2023-04-11T17:38:20.890Z,17.70
2023-04-11T17:39:54.408Z,21.10
2023-04-11T17:41:27.469Z,25.00
2023-04-11T17:43:00.629Z,29.10
2023-04-11T17:44:34.093Z,39.70
2023-04-11T17:46:08.786Z,44.90
2023-04-11T17:47:42.900Z,59.70
2023-04-11T17:49:16.790Z,84.60
2023-04-11T17:50:50.007Z,86.40
2023-04-11T17:52:24.545Z,82.80
2023-04-11T17:53:57.758Z,88.30
2023-04-11T17:55:31.070Z,92.80
2023-04-11T17:57:04.189Z,93.70
2023-04-11T17:58:38.164Z,94.50
2023-04-11T18:00:19.074Z,92.90
2023-04-11T18:01:53.361Z,90.90
2023-04-11T18:03:27.048Z,91.60
2023-04-11T18:05:03.910Z,89.30
2023-04-11T18:06:41.009Z,90.80
2023-04-11T18:08:15.437Z,92.30
2023-04-11T18:09:48.500Z,91.50
2023-04-11T18:11:21.989Z,94.50
2023-04-11T18:12:57.439Z,99.30
2023-04-11T18:14:32.820Z,99.90
2023-04-11T18:16:06.269Z,99.90
2023-04-11T18:17:40.313Z,97.50
2023-04-11T18:19:13.805Z,92.50
2023-04-11T18:20:48.053Z,91.20
2023-04-11T18:22:21.155Z,89.00
2023-04-11T18:23:56.307Z,94.90
2023-04-11T18:25:29.867Z,98.00
2023-04-11T18:27:03.841Z,99.90
2023-04-11T18:28:37.073Z,99.90
2023-04-11T18:30:13.083Z,99.90
2023-04-11T18:31:46.192Z,99.90
2023-04-11T18:33:20.325Z,99.90
2023-04-11T18:34:53.956Z,99.90
2023-04-11T18:36:27.187Z,99.90
2023-04-11T18:38:00.510Z,99.90
2023-04-11T18:39:35.969Z,83.80
2023-04-11T18:41:09.476Z,62.30
2023-04-11T18:42:45.171Z,47.30
2023-04-11T18:44:18.477Z,45.10
2023-04-11T18:45:51.552Z,41.80
2023-04-11T18:47:25.089Z,49.00
2023-04-11T18:48:58.977Z,43.90
2023-04-11T18:50:32.100Z,39.10
2023-04-11T18:52:05.231Z,51.90
2023-04-11T18:53:39.496Z,43.00
2023-04-11T18:55:15.521Z,40.10
2023-04-11T18:56:51.203Z,38.10
2023-04-11T18:58:27.446Z,35.90
2023-04-11T19:00:13.300Z,29.70
2023-04-11T19:01:49.824Z,25.60
2023-04-11T19:03:24.067Z,21.60
2023-04-11T19:04:57.414Z,20.50
2023-04-11T19:06:30.810Z,20.70
2023-04-11T19:08:03.877Z,23.70
2023-04-11T19:09:36.965Z,28.60
2023-04-11T19:11:11.419Z,30.90
2023-04-11T19:12:44.488Z,37.00
2023-04-11T19:14:17.627Z,38.30
2023-04-11T19:15:50.949Z,45.60
2023-04-11T19:17:24.145Z,46.50
2023-04-11T19:18:58.943Z,43.40
2023-04-11T19:20:32.677Z,47.40
2023-04-11T19:22:05.805Z,47.50
2023-04-11T19:23:38.963Z,50.40
2023-04-11T19:25:12.869Z,57.70
2023-04-11T19:26:47.349Z,63.00
2023-04-11T19:28:20.747Z,66.20
2023-04-11T19:29:53.786Z,71.50
2023-04-11T19:31:27.185Z,84.40
2023-04-11T19:33:01.175Z,77.30
2023-04-11T19:34:35.016Z,90.90
2023-04-11T19:36:08.245Z,87.10
2023-04-11T19:37:42.525Z,84.60
2023-04-11T19:39:15.679Z,88.10
2023-04-11T19:40:48.778Z,86.90
2023-04-11T19:42:24.936Z,90.30
2023-04-11T19:43:58.375Z,92.10
2023-04-11T19:45:32.501Z,92.90
2023-04-11T19:47:05.877Z,95.10
2023-04-11T19:48:39.943Z,98.00
2023-04-11T19:50:13.968Z,99.90
2023-04-11T19:51:47.029Z,99.90
2023-04-11T19:53:20.125Z,99.90
2023-04-11T19:54:53.294Z,99.90
2023-04-11T19:56:26.635Z,99.90
2023-04-11T19:58:01.666Z,99.90
2023-04-11T19:59:34.819Z,99.90
2023-04-11T20:01:08.334Z,99.90
2023-04-11T20:02:45.771Z,99.90
2023-04-11T20:04:19.278Z,99.90
2023-04-11T20:05:52.461Z,99.90
2023-04-11T20:07:25.525Z,99.90
2023-04-11T20:08:58.607Z,99.90
2023-04-11T20:10:31.725Z,99.90
2023-04-11T20:12:06.239Z,99.90
2023-04-11T20:13:40.662Z,99.90
2023-04-11T20:15:14.773Z,99.90
2023-04-11T20:16:48.007Z,99.90
2023-04-11T20:18:21.135Z,99.90
2023-04-11T20:19:54.522Z,99.90
2023-04-11T20:21:27.568Z,99.90
2023-04-11T20:23:04.706Z,99.90
2023-04-11T20:24:37.814Z,99.90
2023-04-11T20:26:10.859Z,99.90